createdAt,value
2023-04-07T00:04:55.681Z,8.48
2023-04-07T00:10:10.392Z,8.95
2023-04-07T00:15:25.694Z,10.38
2023-04-07T00:20:40.443Z,5.75
2023-04-07T00:25:55.714Z,10.15
2023-04-07T00:31:10.679Z,6.65
2023-04-07T00:36:25.697Z,7.32
2023-04-07T00:41:41.089Z,6.97
2023-04-07T00:46:56.748Z,6.05
2023-04-07T00:52:11.660Z,5.13
2023-04-07T00:57:26.443Z,6.72
2023-04-07T01:02:42.136Z,5.75
2023-04-07T01:07:57.704Z,3.58
2023-04-07T01:13:12.680Z,5.30
2023-04-07T01:18:27.625Z,3.53
2023-04-07T01:23:43.633Z,5.63
2023-04-07T01:28:58.695Z,4.15
2023-04-07T01:34:14.985Z,6.28
2023-04-07T01:39:30.951Z,4.28
2023-04-07T01:44:46.981Z,4.38
2023-04-07T01:50:02.642Z,5.60
2023-04-07T01:55:17.643Z,4.72
2023-04-07T02:00:42.771Z,6.93
2023-04-07T02:06:00.735Z,6.22
2023-04-07T02:11:15.732Z,5.25
2023-04-07T02:16:33.694Z,4.72
2023-04-07T02:21:48.692Z,7.55
2023-04-07T02:27:03.444Z,7.03
2023-04-07T02:32:18.701Z,7.10
2023-04-07T02:37:33.659Z,5.68
2023-04-07T02:42:48.659Z,11.38
2023-04-07T02:48:04.701Z,5.65
2023-04-07T02:53:19.938Z,7.45
2023-04-07T02:58:35.974Z,7.40
2023-04-07T03:03:53.161Z,6.45
2023-04-07T03:09:08.486Z,7.43
2023-04-07T03:14:23.654Z,6.00
2023-04-07T03:19:39.130Z,4.47
2023-04-07T03:24:54.673Z,6.47
2023-04-07T03:30:09.659Z,9.65
2023-04-07T03:35:26.650Z,12.05
2023-04-07T03:40:41.670Z,35.40
2023-04-07T03:45:56.816Z,17.58
2023-04-07T03:51:12.638Z,22.95
2023-04-07T03:56:29.705Z,15.27
2023-04-07T04:01:52.767Z,9.50
2023-04-07T04:07:08.688Z,5.93
2023-04-07T04:12:31.010Z,6.10
2023-04-07T04:17:50.723Z,4.75
2023-04-07T04:23:06.680Z,5.82
2023-04-07T04:28:22.775Z,4.40
2023-04-07T04:33:37.702Z,7.65
2023-04-07T04:38:52.682Z,7.60
2023-04-07T04:44:07.931Z,5.30
2023-04-07T04:49:24.703Z,4.78
2023-04-07T04:54:42.673Z,4.75
2023-04-07T04:59:58.654Z,6.90
2023-04-07T05:05:13.491Z,6.03
2023-04-07T05:10:30.649Z,4.85
2023-04-07T05:15:45.718Z,5.60
2023-04-07T05:21:00.676Z,4.78
2023-04-07T05:26:17.999Z,5.53
2023-04-07T05:31:33.751Z,13.13
2023-04-07T05:36:53.074Z,126.03
2023-04-07T05:42:08.671Z,150.52
2023-04-07T05:47:26.689Z,136.90
2023-04-07T05:52:42.477Z,105.50
2023-04-07T05:58:03.733Z,111.60
2023-04-07T06:03:20.785Z,100.28
2023-04-07T06:08:41.714Z,78.68
2023-04-07T06:13:57.006Z,74.72
2023-04-07T06:19:12.460Z,66.82
2023-04-07T06:24:27.716Z,67.07
2023-04-07T06:29:44.959Z,67.05
2023-04-07T06:35:01.665Z,58.55
2023-04-07T06:40:17.030Z,54.03
2023-04-07T06:45:32.725Z,52.50
2023-04-07T06:50:47.758Z,43.80
2023-04-07T06:56:02.477Z,47.42
2023-04-07T07:01:17.771Z,69.60
2023-04-07T07:06:32.662Z,98.22
2023-04-07T07:11:47.479Z,80.30
2023-04-07T07:17:02.717Z,63.20
2023-04-07T07:22:17.991Z,62.03
2023-04-07T07:27:33.476Z,60.47
2023-04-07T07:32:48.748Z,39.03
2023-04-07T07:38:03.919Z,50.85
2023-04-07T07:43:19.062Z,56.28
2023-04-07T07:48:34.775Z,47.65
2023-04-07T07:53:50.038Z,37.00
2023-04-07T07:59:05.679Z,42.13
2023-04-07T08:04:20.776Z,28.60
2023-04-07T08:09:36.015Z,24.30
2023-04-07T08:14:51.933Z,29.73
2023-04-07T08:20:07.694Z,23.60
2023-04-07T08:25:22.480Z,20.65
2023-04-07T08:30:37.752Z,16.55
2023-04-07T08:35:53.031Z,20.52
2023-04-07T08:41:08.966Z,14.90
2023-04-07T08:46:24.581Z,16.50
2023-04-07T08:51:39.669Z,19.13
2023-04-07T08:56:54.664Z,16.92
2023-04-07T09:02:09.763Z,12.88
2023-04-07T09:07:24.694Z,16.10
2023-04-07T09:12:39.674Z,12.10
2023-04-07T09:17:54.699Z,13.05
2023-04-07T09:23:10.023Z,12.43
2023-04-07T09:28:26.754Z,13.90
2023-04-07T09:33:41.694Z,16.52
2023-04-07T09:38:56.703Z,11.95
2023-04-07T09:44:11.740Z,9.15
2023-04-07T09:49:26.693Z,10.63
2023-04-07T09:54:41.776Z,10.05
2023-04-07T09:59:56.670Z,11.57
2023-04-07T10:05:21.675Z,8.93
2023-04-07T10:10:36.881Z,9.23
2023-04-07T10:15:51.717Z,6.03
2023-04-07T10:21:06.749Z,7.30
2023-04-07T10:26:22.060Z,12.27
2023-04-07T10:31:37.844Z,11.15
2023-04-07T10:36:52.689Z,9.82
2023-04-07T10:42:08.076Z,7.05
2023-04-07T10:47:24.012Z,12.30
2023-04-07T10:52:39.716Z,9.60
2023-04-07T10:57:54.756Z,9.25
2023-04-07T11:03:10.964Z,8.35
2023-04-07T11:08:26.722Z,8.80
2023-04-07T11:13:41.784Z,6.47
2023-04-07T11:18:56.724Z,5.93
2023-04-07T11:24:11.795Z,10.88
2023-04-07T11:29:26.666Z,12.40
2023-04-07T11:34:41.714Z,7.88
2023-04-07T11:39:57.065Z,8.30
2023-04-07T11:45:12.832Z,7.85
2023-04-07T11:50:27.701Z,7.60
2023-04-07T11:55:42.980Z,6.53
2023-04-07T12:00:58.757Z,6.53
2023-04-07T12:06:13.665Z,6.07
2023-04-07T12:11:28.748Z,4.70
2023-04-07T12:16:44.806Z,5.40
2023-04-07T12:22:00.720Z,4.18
2023-04-07T12:27:15.469Z,4.57
2023-04-07T12:32:30.764Z,3.80
2023-04-07T12:37:45.733Z,8.52
2023-04-07T12:43:00.762Z,6.20
2023-04-07T12:48:15.733Z,8.48
2023-04-07T12:53:30.720Z,4.72
2023-04-07T12:58:45.703Z,9.60
2023-04-07T13:04:00.901Z,5.95
2023-04-07T13:09:15.773Z,5.10
2023-04-07T13:14:30.701Z,4.43
2023-04-07T13:19:46.056Z,4.32
2023-04-07T13:25:02.074Z,5.50
2023-04-07T13:30:17.785Z,6.22
2023-04-07T13:35:32.842Z,3.60
2023-04-07T13:40:48.126Z,6.70
2023-04-07T13:51:20.682Z,4.50
2023-04-07T13:56:35.897Z,4.47
2023-04-07T14:01:50.832Z,8.95
2023-04-07T14:07:05.485Z,6.15
2023-04-07T14:12:20.679Z,3.90
2023-04-07T14:17:35.744Z,5.13
2023-04-07T14:22:50.700Z,5.70
2023-04-07T14:28:05.774Z,5.13
2023-04-07T14:33:20.759Z,3.72
2023-04-07T14:38:35.467Z,3.78
2023-04-07T14:43:52.332Z,4.40
2023-04-07T14:49:08.732Z,3.63
2023-04-07T14:54:23.778Z,4.43
2023-04-07T15:00:15.698Z,4.75
2023-04-07T15:05:30.734Z,7.25
2023-04-07T15:10:45.445Z,5.63
2023-04-07T15:16:00.753Z,3.60
2023-04-07T15:21:15.728Z,4.68
2023-04-07T15:26:30.738Z,8.20
2023-04-07T15:31:45.815Z,4.80
2023-04-07T15:37:02.785Z,4.95
2023-04-07T15:42:19.498Z,6.90
2023-04-07T15:47:34.777Z,6.55
2023-04-07T15:52:49.787Z,5.10
2023-04-07T15:58:04.768Z,5.57
2023-04-07T16:03:19.831Z,5.57
2023-04-07T16:08:34.748Z,5.22
2023-04-07T16:13:50.034Z,3.63
2023-04-07T16:19:05.813Z,4.65
2023-04-07T16:24:20.731Z,6.90
2023-04-07T16:29:35.744Z,7.75
2023-04-07T16:34:51.171Z,4.03
2023-04-07T16:40:06.760Z,4.47
2023-04-07T16:45:21.772Z,4.88
2023-04-07T16:50:36.803Z,4.47
2023-04-07T16:55:51.741Z,5.72
2023-04-07T17:01:06.802Z,6.13
2023-04-07T17:06:21.766Z,3.95
2023-04-07T17:11:37.097Z,3.58
2023-04-07T17:16:52.760Z,3.40
2023-04-07T17:22:07.798Z,4.38
2023-04-07T17:27:22.766Z,3.95
2023-04-07T17:32:37.789Z,4.70
2023-04-07T17:37:52.739Z,4.85
2023-04-07T17:43:08.075Z,5.03
2023-04-07T17:48:24.033Z,3.67
2023-04-07T17:53:39.824Z,5.88
2023-04-07T17:58:54.687Z,3.25
2023-04-07T18:04:09.795Z,2.83
2023-04-07T18:09:24.514Z,4.53
2023-04-07T18:14:40.059Z,3.65
2023-04-07T18:19:55.753Z,2.67
2023-04-07T18:25:10.538Z,6.18
2023-04-07T18:30:26.090Z,3.67
2023-04-07T18:35:41.790Z,3.72
2023-04-07T18:40:56.737Z,5.60
2023-04-07T18:46:12.116Z,7.45
2023-04-07T18:51:27.707Z,5.35
2023-04-07T18:56:43.090Z,3.97
2023-04-07T19:01:58.578Z,5.07
2023-04-07T19:07:13.832Z,4.78
2023-04-07T19:12:28.721Z,7.38
2023-04-07T19:17:43.793Z,4.03
2023-04-07T19:22:58.711Z,2.97
2023-04-07T19:28:13.758Z,5.75
2023-04-07T19:33:28.787Z,5.97
2023-04-07T19:38:43.756Z,3.65
2023-04-07T19:43:58.751Z,5.50
2023-04-07T19:49:13.773Z,3.40
2023-04-07T19:54:28.751Z,4.93
2023-04-07T19:59:43.774Z,5.03
2023-04-07T20:04:59.081Z,5.18
2023-04-07T20:10:14.755Z,6.07
2023-04-07T20:15:29.772Z,6.28
2023-04-07T20:20:44.748Z,7.40
2023-04-07T20:25:59.741Z,8.38
2023-04-07T20:31:14.789Z,8.00
2023-04-07T20:36:31.097Z,6.15
2023-04-07T20:41:46.751Z,9.27
2023-04-07T20:47:01.534Z,5.03
2023-04-07T20:52:16.731Z,8.45
2023-04-07T20:57:31.774Z,5.65
2023-04-07T21:02:46.649Z,4.97
2023-04-07T21:08:01.713Z,5.35
2023-04-07T21:13:16.807Z,7.75
2023-04-07T21:18:31.731Z,7.05
2023-04-07T21:23:47.043Z,7.75
2023-04-07T21:29:02.780Z,4.68
2023-04-07T21:34:17.525Z,5.05
2023-04-07T21:39:32.768Z,4.03
2023-04-07T21:44:47.922Z,5.20
2023-04-07T21:50:03.768Z,5.78
2023-04-07T21:55:18.795Z,7.97
2023-04-07T22:00:33.791Z,4.75
2023-04-07T22:05:48.834Z,6.30
2023-04-07T22:11:03.781Z,7.57
2023-04-07T22:16:18.864Z,6.93
2023-04-07T22:21:33.745Z,6.15
2023-04-07T22:26:48.513Z,6.13
2023-04-07T22:32:03.761Z,7.10
2023-04-07T22:37:19.201Z,5.82
2023-04-07T22:42:34.845Z,7.28
2023-04-07T22:47:49.782Z,6.13
2023-04-07T22:53:04.800Z,6.20
2023-04-07T22:58:20.721Z,5.05
2023-04-07T23:03:35.909Z,4.30
2023-04-07T23:08:50.980Z,4.32
2023-04-07T23:14:06.773Z,4.07
2023-04-07T23:19:21.791Z,3.88
2023-04-07T23:24:36.712Z,5.35
2023-04-07T23:29:51.781Z,3.60
2023-04-07T23:35:06.730Z,4.38
2023-04-07T23:40:21.759Z,3.67
2023-04-07T23:45:36.874Z,3.67
2023-04-07T23:50:51.736Z,3.10
2023-04-07T23:56:07.100Z,4.07
